Time;durP1;ratioP1;P1;durP2;ratioP2;P2;SDS_P1;SDS_P2;PMS_P1;PMS_P2;Temp;Humidity;BMP_temperature;BMP_pressure;BME280_temperature;BME280_humidity;BME280_pressure;Samples;Min_cycle;Max_cycle;Signal;HPM_P1;HPM_P2
2022/09/22 00:02:18;;;;;;;1.00;0.60;;;17.60;60.90;;;;;;5073242;28;20532;-61
2022/09/22 00:04:43;;;;;;;0.63;0.63;;;17.60;60.80;;;;;;5073981;28;20629;-61
2022/09/22 00:07:09;;;;;;;1.30;0.88;;;17.60;60.90;;;;;;5073646;28;20249;-61
2022/09/22 00:09:34;;;;;;;0.80;0.80;;;17.60;60.80;;;;;;5073270;28;20260;-61
2022/09/22 00:12:00;;;;;;;0.70;0.65;;;17.60;60.80;;;;;;5073797;28;20595;-61
2022/09/22 00:14:26;;;;;;;0.80;0.70;;;17.60;60.80;;;;;;5073184;28;20598;-61
2022/09/22 00:16:59;;;;;;;1.20;0.73;;;17.60;60.80;;;;;;5073858;28;20629;-62
2022/09/22 00:19:30;;;;;;;0.70;0.70;;;17.60;60.80;;;;;;5073807;28;20182;-62
2022/09/22 00:21:56;;;;;;;1.05;0.70;;;17.60;60.80;;;;;;5073050;28;20536;-61
2022/09/22 00:24:22;;;;;;;1.27;0.90;;;17.60;60.80;;;;;;5073408;28;20170;-61
2022/09/22 00:26:50;;;;;;;2.25;1.00;;;17.60;60.90;;;;;;5073800;28;20174;-61
2022/09/22 00:29:16;;;;;;;1.38;0.90;;;17.50;60.80;;;;;;5072548;28;20178;-61
2022/09/22 00:31:42;;;;;;;1.02;0.88;;;17.60;60.80;;;;;;5073388;28;20653;-61
2022/09/22 00:34:12;;;;;;;0.80;0.80;;;17.60;60.80;;;;;;5073215;28;20210;-61
2022/09/22 00:36:37;;;;;;;0.60;0.60;;;17.50;60.80;;;;;;5072934;28;20216;-61
2022/09/22 00:39:03;;;;;;;0.73;0.73;;;17.50;60.80;;;;;;5073232;28;20174;-62
2022/09/22 00:41:39;;;;;;;0.98;0.88;;;17.50;60.80;;;;;;5073423;28;20204;-61
2022/09/22 00:44:30;;;;;;;0.63;0.63;;;17.50;60.80;;;;;;5072164;28;20173;-63
2022/09/22 00:46:58;;;;;;;1.00;0.80;;;17.50;61.30;;;;;;5071852;28;20175;-61
2022/09/22 00:49:49;;;;;;;1.05;0.90;;;17.50;60.80;;;;;;5073066;28;20192;-61
2022/09/22 00:52:19;;;;;;;0.95;0.80;;;17.50;60.80;;;;;;5066306;28;20178;-61
2022/09/22 00:54:44;;;;;;;1.10;1.00;;;17.50;60.80;;;;;;5071713;28;20214;-61
2022/09/22 00:57:13;;;;;;;0.70;0.70;;;17.50;60.80;;;;;;5070591;28;20170;-62
2022/09/22 00:59:38;;;;;;;0.90;0.90;;;17.60;60.80;;;;;;5073017;28;20259;-61
2022/09/22 01:02:04;;;;;;;0.80;0.80;;;17.50;60.80;;;;;;5071418;28;20623;-61
2022/09/22 01:04:29;;;;;;;1.10;0.95;;;17.50;60.80;;;;;;5071058;28;20179;-61
2022/09/22 01:06:56;;;;;;;0.80;0.80;;;17.50;60.80;;;;;;5072905;28;20170;-61
2022/09/22 01:09:22;;;;;;;1.17;0.95;;;17.40;60.80;;;;;;5054815;28;20234;-61
2022/09/22 01:11:47;;;;;;;0.90;0.90;;;17.50;60.90;;;;;;5070724;28;20179;-61
2022/09/22 01:14:35;;;;;;;1.20;1.10;;;17.50;60.80;;;;;;5071302;28;20218;-62
2022/09/22 01:17:06;;;;;;;1.15;1.05;;;17.50;60.80;;;;;;5072318;28;20265;-61
2022/09/22 01:19:56;;;;;;;1.30;1.20;;;17.50;60.80;;;;;;5071970;28;20228;-62
2022/09/22 01:23:04;;;;;;;0.98;0.88;;;17.50;60.90;;;;;;5072635;28;20635;-61
2022/09/22 01:26:01;;;;;;;0.90;0.90;;;17.40;60.80;;;;;;5057279;28;20179;-61
2022/09/22 01:28:50;;;;;;;0.90;0.85;;;17.40;60.80;;;;;;5057875;28;20273;-61
2022/09/22 01:31:16;;;;;;;1.58;1.00;;;17.40;60.80;;;;;;5072467;28;20177;-61
2022/09/22 01:33:50;;;;;;;1.00;1.00;;;17.40;60.80;;;;;;5071696;28;20178;-61
2022/09/22 01:36:24;;;;;;;1.25;1.15;;;17.40;60.90;;;;;;5071255;28;20598;-61
2022/09/22 01:39:01;;;;;;;0.95;0.88;;;17.40;60.80;;;;;;5070406;28;20581;-61
2022/09/22 01:41:37;;;;;;;1.52;1.27;;;17.40;60.80;;;;;;5072637;28;20174;-61
2022/09/22 01:44:06;;;;;;;0.85;0.82;;;17.40;60.90;;;;;;5072234;28;20216;-61
2022/09/22 01:46:37;;;;;;;1.33;1.10;;;17.30;60.90;;;;;;5054115;28;20262;-61
2022/09/22 01:49:06;;;;;;;1.48;1.30;;;17.40;60.90;;;;;;5071199;28;20178;-61
2022/09/22 01:51:47;;;;;;;0.90;0.90;;;17.40;60.90;;;;;;5055000;28;20249;-61
2022/09/22 01:54:18;;;;;;;0.82;0.82;;;17.40;60.90;;;;;;5053628;28;20279;-61
2022/09/22 01:56:45;;;;;;;1.65;1.13;;;17.40;60.90;;;;;;5070936;28;20174;-61
2022/09/22 01:59:11;;;;;;;1.08;1.02;;;17.40;60.90;;;;;;5054288;28;20202;-61
2022/09/22 02:01:51;;;;;;;1.05;1.00;;;17.40;60.90;;;;;;5073277;28;20535;-61
2022/09/22 02:04:23;;;;;;;2.65;1.20;;;17.40;60.90;;;;;;5074942;28;20492;-61
2022/09/22 02:07:00;;;;;;;1.15;1.05;;;17.40;60.90;;;;;;5076076;28;20540;-61
2022/09/22 02:09:28;;;;;;;1.00;1.00;;;17.40;60.90;;;;;;5074926;28;20230;-61
2022/09/22 02:11:54;;;;;;;0.90;0.90;;;17.40;60.80;;;;;;5059132;28;20178;-61
2022/09/22 02:14:19;;;;;;;0.95;0.90;;;17.40;60.90;;;;;;5073683;28;20778;-61
2022/09/22 02:16:45;;;;;;;1.38;1.20;;;17.30;60.80;;;;;;5076030;28;20181;-62
2022/09/22 02:19:22;;;;;;;1.23;1.02;;;17.40;60.90;;;;;;5058064;28;20186;-61
2022/09/22 02:21:48;;;;;;;1.20;1.10;;;17.30;60.80;;;;;;5075018;28;20178;-61
2022/09/22 02:24:38;;;;;;;1.17;1.08;;;17.30;60.90;;;;;;5074419;28;20177;-61
2022/09/22 02:27:11;;;;;;;1.00;1.00;;;17.30;60.80;;;;;;5074162;28;20620;-61
2022/09/22 02:29:39;;;;;;;1.83;1.00;;;17.30;60.80;;;;;;5072567;28;20170;-61
2022/09/22 02:32:06;;;;;;;1.30;1.20;;;17.30;60.80;;;;;;5056639;28;20593;-61
2022/09/22 02:34:32;;;;;;;0.98;0.90;;;17.30;60.80;;;;;;5056634;28;20683;-61
2022/09/22 02:37:32;;;;;;;1.45;1.10;;;17.30;61.60;;;;;;5072110;28;20178;-61
2022/09/22 02:40:03;;;;;;;1.08;0.90;;;17.30;60.90;;;;;;5051855;28;20179;-61
2022/09/22 02:42:41;;;;;;;1.15;1.05;;;17.30;60.80;;;;;;5065147;28;20702;-61
2022/09/22 02:45:22;;;;;;;0.93;0.90;;;17.30;60.80;;;;;;5072595;28;20186;-61
2022/09/22 02:47:50;;;;;;;1.00;0.95;;;17.30;60.80;;;;;;5058088;28;20182;-61
2022/09/22 02:50:17;;;;;;;1.00;0.90;;;17.30;60.80;;;;;;5072137;28;20229;-61
2022/09/22 02:52:42;;;;;;;1.05;0.90;;;17.30;60.80;;;;;;5056589;28;20174;-61
2022/09/22 02:55:09;;;;;;;1.13;1.00;;;17.30;60.90;;;;;;5073941;28;20688;-64
2022/09/22 02:57:34;;;;;;;1.08;1.05;;;17.20;60.70;;;;;;5073626;28;20171;-61
2022/09/22 03:00:00;;;;;;;1.20;1.10;;;17.30;60.90;;;;;;5073568;28;20208;-61
2022/09/22 03:02:26;;;;;;;1.17;0.98;;;17.30;60.90;;;;;;5074048;28;20512;-61
2022/09/22 03:04:52;;;;;;;1.10;1.00;;;17.20;60.80;;;;;;5073508;28;20182;-61
2022/09/22 03:07:18;;;;;;;1.45;1.33;;;17.20;60.80;;;;;;5073887;28;20217;-61
2022/09/22 03:09:43;;;;;;;0.90;0.90;;;17.20;60.80;;;;;;5073806;28;20652;-61
2022/09/22 03:12:09;;;;;;;1.40;1.10;;;17.20;60.80;;;;;;5072818;28;20189;-61
2022/09/22 03:14:34;;;;;;;1.48;1.20;;;17.20;60.80;;;;;;5073813;28;20198;-61
2022/09/22 03:17:00;;;;;;;1.42;1.30;;;17.20;60.80;;;;;;5073761;28;20193;-61
2022/09/22 03:19:25;;;;;;;1.38;0.90;;;17.20;60.70;;;;;;5073045;28;20505;-61
2022/09/22 03:21:51;;;;;;;1.00;1.00;;;17.20;60.80;;;;;;5073871;28;20257;-61
2022/09/22 03:24:16;;;;;;;1.25;1.10;;;17.20;60.80;;;;;;5072494;28;20195;-62
2022/09/22 03:26:42;;;;;;;2.38;1.48;;;17.20;60.80;;;;;;5073796;28;20174;-61
2022/09/22 03:29:10;;;;;;;1.10;1.10;;;17.20;60.80;;;;;;5073404;28;20182;-62
2022/09/22 03:31:36;;;;;;;1.15;1.00;;;17.20;60.80;;;;;;5072881;28;20227;-61
2022/09/22 03:34:01;;;;;;;1.10;1.10;;;17.20;60.90;;;;;;5073428;28;20194;-61
2022/09/22 03:36:27;;;;;;;0.85;0.85;;;17.20;60.80;;;;;;5073626;28;20182;-61
2022/09/22 03:38:53;;;;;;;1.10;1.05;;;17.20;60.80;;;;;;5072713;28;20171;-62
2022/09/22 03:41:18;;;;;;;0.90;0.90;;;17.20;60.80;;;;;;5073355;28;20575;-61
2022/09/22 03:43:44;;;;;;;1.05;0.82;;;17.20;60.80;;;;;;5073647;28;20179;-61
2022/09/22 03:46:09;;;;;;;1.13;1.13;;;17.20;60.80;;;;;;5072775;28;20655;-61
2022/09/22 03:48:35;;;;;;;1.30;0.80;;;17.20;60.80;;;;;;5073822;28;20254;-63
2022/09/22 03:51:00;;;;;;;2.05;1.20;;;17.20;60.80;;;;;;5073500;28;20253;-61
2022/09/22 03:53:26;;;;;;;2.28;1.10;;;17.20;60.80;;;;;;5072900;28;20167;-62
2022/09/22 03:55:52;;;;;;;1.42;1.30;;;17.10;60.80;;;;;;5073319;28;20267;-61
2022/09/22 03:58:21;;;;;;;1.00;1.00;;;17.10;60.80;;;;;;5073069;28;20175;-61
2022/09/22 04:00:47;;;;;;;0.80;0.80;;;17.10;60.80;;;;;;5073074;28;20185;-62
2022/09/22 04:03:13;;;;;;;1.10;1.10;;;17.10;60.80;;;;;;5072994;28;20178;-61
2022/09/22 04:05:38;;;;;;;1.05;1.05;;;17.10;60.80;;;;;;5073377;28;20257;-61
2022/09/22 04:08:04;;;;;;;1.10;1.10;;;17.10;60.80;;;;;;5072316;28;20305;-61
2022/09/22 04:10:29;;;;;;;1.58;1.00;;;17.10;60.80;;;;;;5073008;28;20234;-61
2022/09/22 04:12:55;;;;;;;0.90;0.90;;;17.10;60.80;;;;;;5073094;28;20315;-61
2022/09/22 04:15:20;;;;;;;0.85;0.85;;;17.10;60.80;;;;;;5072093;28;20293;-61
2022/09/22 04:17:47;;;;;;;1.33;1.00;;;17.10;60.80;;;;;;5072825;28;20194;-61
2022/09/22 04:20:12;;;;;;;1.25;1.13;;;17.10;61.00;;;;;;5072861;28;20621;-61
2022/09/22 04:22:38;;;;;;;1.00;0.88;;;17.10;60.80;;;;;;5072102;28;20178;-61
2022/09/22 04:25:05;;;;;;;0.95;0.93;;;17.10;60.80;;;;;;5072413;28;20541;-61
2022/09/22 04:27:30;;;;;;;1.05;0.90;;;17.10;60.80;;;;;;5072527;28;20257;-60
2022/09/22 04:29:56;;;;;;;1.33;1.20;;;17.00;60.80;;;;;;5072881;28;20262;-60
2022/09/22 04:32:22;;;;;;;1.35;1.10;;;17.10;61.00;;;;;;5073153;28;20253;-60
2022/09/22 04:34:47;;;;;;;1.20;1.10;;;17.10;60.90;;;;;;5071983;28;20655;-60
2022/09/22 04:37:13;;;;;;;2.13;1.00;;;17.10;60.90;;;;;;5072525;28;20253;-60
2022/09/22 04:39:38;;;;;;;2.53;1.20;;;17.10;60.90;;;;;;5072709;28;20582;-60
2022/09/22 04:42:04;;;;;;;0.95;0.95;;;17.00;60.80;;;;;;5071663;28;20604;-60
2022/09/22 04:44:30;;;;;;;0.88;0.88;;;17.10;60.80;;;;;;5072779;28;20269;-61
2022/09/22 04:46:56;;;;;;;2.67;1.10;;;17.00;60.80;;;;;;5072707;28;20178;-61
2022/09/22 04:49:21;;;;;;;0.85;0.85;;;17.00;60.80;;;;;;5071834;28;20175;-61
2022/09/22 04:51:47;;;;;;;0.88;0.88;;;17.00;60.80;;;;;;5072617;28;20287;-60
2022/09/22 04:54:13;;;;;;;1.40;1.30;;;17.00;60.80;;;;;;5072000;28;20190;-60
2022/09/22 04:56:40;;;;;;;1.20;1.10;;;17.00;60.90;;;;;;5071605;28;20258;-60
2022/09/22 04:59:05;;;;;;;1.20;1.10;;;17.00;60.90;;;;;;5072237;28;20177;-64
2022/09/22 05:01:31;;;;;;;1.00;0.98;;;17.00;60.80;;;;;;5072529;28;20170;-61
2022/09/22 05:03:56;;;;;;;1.27;1.17;;;17.00;60.80;;;;;;5071605;28;20163;-61
2022/09/22 05:06:22;;;;;;;1.13;1.05;;;17.00;60.80;;;;;;5072200;28;20645;-64
2022/09/22 05:08:47;;;;;;;1.10;1.10;;;17.00;60.80;;;;;;5071962;28;20253;-61
2022/09/22 05:11:13;;;;;;;1.27;1.17;;;17.00;60.80;;;;;;5071037;28;20683;-61
2022/09/22 05:13:39;;;;;;;1.02;1.02;;;17.00;60.80;;;;;;5072143;28;20641;-61
2022/09/22 05:16:07;;;;;;;2.05;1.20;;;17.00;60.80;;;;;;5071826;28;20206;-61
2022/09/22 05:18:32;;;;;;;1.40;1.30;;;17.00;60.80;;;;;;5071336;28;20539;-62
2022/09/22 05:20:59;;;;;;;0.93;0.93;;;17.00;60.80;;;;;;5071840;28;20633;-61
2022/09/22 05:23:24;;;;;;;1.45;1.27;;;17.00;60.90;;;;;;5071940;28;20174;-61
2022/09/22 05:25:53;;;;;;;1.10;1.10;;;17.00;60.80;;;;;;5071188;28;20585;-61
2022/09/22 05:28:20;;;;;;;1.30;1.20;;;17.00;60.80;;;;;;5071727;28;20177;-62
2022/09/22 05:30:48;;;;;;;1.48;1.38;;;17.00;60.80;;;;;;5071778;28;20650;-60
2022/09/22 05:33:13;;;;;;;1.38;1.20;;;17.00;60.70;;;;;;5070178;28;20170;-60
2022/09/22 05:35:39;;;;;;;1.35;0.90;;;17.00;60.90;;;;;;5070822;28;20210;-61
2022/09/22 05:38:04;;;;;;;1.45;1.20;;;17.00;60.80;;;;;;5071124;28;20178;-60
2022/09/22 05:40:30;;;;;;;1.35;1.10;;;17.00;60.80;;;;;;5071947;28;20185;-61
2022/09/22 05:42:55;;;;;;;1.10;1.00;;;17.00;60.80;;;;;;5072135;28;20261;-61
2022/09/22 05:45:21;;;;;;;1.27;1.20;;;16.90;60.80;;;;;;5070959;28;20166;-61
2022/09/22 05:47:46;;;;;;;0.93;0.93;;;17.00;60.80;;;;;;5071936;28;20228;-61
2022/09/22 05:50:13;;;;;;;1.33;1.23;;;17.00;60.80;;;;;;5071627;28;20178;-61
2022/09/22 05:52:38;;;;;;;1.08;0.90;;;16.80;60.60;;;;;;5071099;28;20197;-61
2022/09/22 05:55:04;;;;;;;1.50;1.40;;;17.00;60.70;;;;;;5071075;28;20222;-61
2022/09/22 05:57:30;;;;;;;1.00;1.00;;;17.00;60.70;;;;;;5072338;28;20537;-61
2022/09/22 05:59:56;;;;;;;1.02;1.00;;;16.90;60.60;;;;;;5071161;28;20175;-61
2022/09/22 06:02:22;;;;;;;1.40;1.30;;;16.90;60.60;;;;;;5071740;28;20662;-60
2022/09/22 06:04:48;;;;;;;1.35;1.27;;;17.00;60.60;;;;;;5071889;28;20175;-60
2022/09/22 06:07:13;;;;;;;1.88;1.17;;;17.00;60.70;;;;;;5070561;28;20174;-60
2022/09/22 06:09:39;;;;;;;1.65;1.10;;;17.00;60.60;;;;;;5071359;28;20575;-61
2022/09/22 06:12:07;;;;;;;2.05;1.35;;;17.00;60.60;;;;;;5071227;28;20170;-60
2022/09/22 06:14:33;;;;;;;3.33;1.30;;;17.00;60.60;;;;;;5070692;28;20214;-61
2022/09/22 06:16:59;;;;;;;3.38;1.50;;;17.00;60.80;;;;;;5059521;28;20186;-61
2022/09/22 06:19:25;;;;;;;2.10;1.52;;;17.00;60.90;;;;;;5055938;28;20166;-61
2022/09/22 06:21:51;;;;;;;1.48;1.38;;;17.00;61.00;;;;;;5071312;28;20451;-61
2022/09/22 06:24:17;;;;;;;2.30;1.83;;;17.00;61.00;;;;;;5061800;28;20180;-61
2022/09/22 06:26:42;;;;;;;7.38;2.28;;;16.90;61.00;;;;;;5051775;28;20202;-60
2022/09/22 06:29:09;;;;;;;3.72;1.88;;;17.00;61.00;;;;;;5050836;28;20168;-60
2022/09/22 06:31:35;;;;;;;2.05;1.63;;;17.00;60.90;;;;;;5051757;28;20187;-61
2022/09/22 06:34:00;;;;;;;5.70;2.50;;;17.00;60.90;;;;;;5051364;28;20174;-61
2022/09/22 06:36:32;;;;;;;3.13;1.98;;;17.00;60.50;;;;;;5051043;28;20264;-61
2022/09/22 06:38:58;;;;;;;3.85;2.15;;;17.10;60.70;;;;;;5051280;28;20183;-62
2022/09/22 06:41:25;;;;;;;1.65;1.55;;;17.10;60.60;;;;;;5050937;28;20186;-62
2022/09/22 06:43:54;;;;;;;2.13;1.83;;;17.10;61.40;;;;;;5051455;28;20637;-61
2022/09/22 06:46:22;;;;;;;2.75;1.90;;;17.20;60.60;;;;;;5052002;28;20597;-61
2022/09/22 06:48:49;;;;;;;3.30;1.80;;;17.20;60.60;;;;;;5054610;28;20183;-62
2022/09/22 06:51:15;;;;;;;3.65;1.90;;;17.20;60.70;;;;;;5054743;28;20183;-61
2022/09/22 06:53:40;;;;;;;3.00;2.13;;;17.10;60.80;;;;;;5055207;28;20540;-61
2022/09/22 06:56:07;;;;;;;3.60;1.90;;;17.10;60.60;;;;;;5054089;28;20210;-61
2022/09/22 06:58:33;;;;;;;3.10;1.70;;;17.20;60.80;;;;;;5055123;28;20194;-61
2022/09/22 07:01:05;;;;;;;3.35;2.22;;;17.20;60.60;;;;;;5054711;28;20171;-62
2022/09/22 07:03:32;;;;;;;2.83;1.70;;;17.20;60.60;;;;;;5054222;28;20187;-61
2022/09/22 07:05:59;;;;;;;3.35;2.00;;;17.30;60.60;;;;;;5054424;28;20176;-61
2022/09/22 07:08:25;;;;;;;3.05;2.20;;;17.30;60.50;;;;;;5054876;28;20271;-62
2022/09/22 07:10:58;;;;;;;2.63;2.00;;;17.30;60.60;;;;;;5054370;28;20210;-60
2022/09/22 07:13:24;;;;;;;3.63;2.22;;;17.30;60.80;;;;;;5054648;28;20660;-61
2022/09/22 07:15:50;;;;;;;5.90;1.98;;;17.30;60.50;;;;;;5054396;28;20230;-62
2022/09/22 07:18:15;;;;;;;1.90;1.80;;;17.40;60.60;;;;;;5053599;28;20171;-61
2022/09/22 07:20:44;;;;;;;8.95;2.53;;;17.40;60.60;;;;;;5055040;28;20518;-61
2022/09/22 07:23:17;;;;;;;3.83;2.38;;;17.40;60.60;;;;;;5055037;28;20183;-61
2022/09/22 07:25:50;;;;;;;2.40;2.17;;;17.40;60.60;;;;;;5054580;28;20182;-61
2022/09/22 07:28:16;;;;;;;4.55;2.10;;;17.40;60.60;;;;;;5054996;28;20179;-61
2022/09/22 07:30:41;;;;;;;2.55;2.13;;;17.40;60.50;;;;;;5054343;28;20681;-61
2022/09/22 07:33:07;;;;;;;4.03;2.22;;;17.40;60.60;;;;;;5054581;28;20206;-61
2022/09/22 07:35:34;;;;;;;2.65;1.92;;;17.40;60.40;;;;;;5054847;28;20211;-61
2022/09/22 07:38:02;;;;;;;3.00;1.88;;;17.40;60.50;;;;;;5054391;28;20179;-61
2022/09/22 07:40:28;;;;;;;2.13;1.90;;;17.40;60.50;;;;;;5054959;28;20258;-61
2022/09/22 07:42:53;;;;;;;2.88;2.30;;;17.40;60.50;;;;;;5054952;28;20258;-61
2022/09/22 07:45:20;;;;;;;2.70;2.50;;;17.50;60.40;;;;;;5053864;28;20633;-61
2022/09/22 07:50:30;;;;;;;2.45;1.92;;;17.60;60.40;;;;;;5054930;28;20186;-61
2022/09/22 07:52:55;;;;;;;6.60;3.38;;;17.60;60.30;;;;;;5054002;28;20551;-61
2022/09/22 07:55:23;;;;;;;3.90;2.40;;;17.60;60.30;;;;;;5054371;28;20248;-61
2022/09/22 07:57:56;;;;;;;3.45;2.30;;;17.60;60.20;;;;;;5053883;28;20179;-61
2022/09/22 08:00:25;;;;;;;3.63;2.60;;;17.70;60.20;;;;;;5053861;28;20179;-61
2022/09/22 08:02:56;;;;;;;3.55;2.72;;;17.70;60.20;;;;;;5054665;28;20182;-61
2022/09/22 08:05:22;;;;;;;3.00;2.40;;;17.70;60.20;;;;;;5054621;28;20254;-61
2022/09/22 08:07:48;;;;;;;2.40;2.20;;;17.70;60.10;;;;;;5053699;28;20179;-61
2022/09/22 08:10:14;;;;;;;2.90;2.63;;;17.70;60.20;;;;;;5053989;28;20249;-61
2022/09/22 08:12:41;;;;;;;4.53;2.90;;;17.80;60.20;;;;;;5053698;28;20641;-61
2022/09/22 08:15:07;;;;;;;3.20;2.65;;;17.80;60.10;;;;;;5054043;28;20218;-62
2022/09/22 08:17:33;;;;;;;2.97;2.72;;;17.80;60.10;;;;;;5054141;28;20182;-62
2022/09/22 08:20:00;;;;;;;3.20;2.90;;;17.80;60.00;;;;;;5053288;28;20646;-62
2022/09/22 08:22:27;;;;;;;2.65;2.42;;;17.80;60.00;;;;;;5054069;28;20182;-61
2022/09/22 08:24:52;;;;;;;3.20;2.30;;;17.90;60.20;;;;;;5054032;28;20620;-61
2022/09/22 08:27:18;;;;;;;4.40;2.63;;;17.90;60.20;;;;;;5052919;28;20645;-61
2022/09/22 08:29:45;;;;;;;4.43;2.65;;;17.90;60.10;;;;;;5054147;28;20232;-61
2022/09/22 08:32:11;;;;;;;2.50;2.30;;;17.90;60.10;;;;;;5053726;28;20186;-61
2022/09/22 08:34:37;;;;;;;3.80;2.72;;;17.90;60.10;;;;;;5053127;28;20207;-61
2022/09/22 08:37:02;;;;;;;2.88;2.08;;;18.00;60.10;;;;;;5053692;28;20171;-61
2022/09/22 08:39:29;;;;;;;3.40;2.33;;;18.00;60.00;;;;;;5053676;28;20171;-61
2022/09/22 08:42:12;;;;;;;2.47;2.28;;;18.00;60.00;;;;;;5052858;28;20630;-61
2022/09/22 08:44:45;;;;;;;2.97;2.55;;;18.00;60.10;;;;;;5052689;28;20205;-62
2022/09/22 08:53:22;;;;;;;2.80;2.50;;;18.10;60.00;;;;;;5052660;28;20243;-61
2022/09/22 08:56:05;;;;;;;2.60;2.40;;;18.10;60.00;;;;;;5052617;28;20689;-61
2022/09/22 08:59:02;;;;;;;3.15;2.17;;;18.20;60.10;;;;;;5052300;28;20193;-61
2022/09/22 09:01:41;;;;;;;2.55;2.35;;;18.20;60.10;;;;;;5038164;28;20654;-62
2022/09/22 09:04:27;;;;;;;2.65;2.45;;;18.20;60.10;;;;;;5052482;28;20186;-61
2022/09/22 09:07:24;;;;;;;2.55;2.08;;;18.20;60.00;;;;;;5053367;28;20261;-61
2022/09/22 09:10:15;;;;;;;2.60;1.95;;;18.20;60.00;;;;;;5051052;28;20314;-61
2022/09/22 09:12:48;;;;;;;2.58;2.13;;;18.30;60.10;;;;;;5053293;28;20183;-61
2022/09/22 09:15:32;;;;;;;4.18;2.28;;;18.20;60.00;;;;;;5051621;28;20643;-62
2022/09/22 09:18:00;;;;;;;2.35;1.98;;;18.30;60.00;;;;;;5051173;28;20186;-62
2022/09/22 09:20:32;;;;;;;2.13;1.95;;;18.30;60.10;;;;;;5051848;28;20586;-61
2022/09/22 09:22:57;;;;;;;1.98;1.52;;;18.30;60.10;;;;;;5052127;28;20171;-61
2022/09/22 09:25:35;;;;;;;4.57;2.30;;;18.40;60.10;;;;;;5053000;28;20656;-61
2022/09/22 09:28:10;;;;;;;2.10;2.00;;;18.40;60.10;;;;;;5052882;28;20174;-61
2022/09/22 09:30:57;;;;;;;2.90;2.30;;;18.30;60.00;;;;;;5051258;28;20183;-61
2022/09/22 09:33:28;;;;;;;2.60;2.25;;;18.40;60.00;;;;;;5053000;28;20183;-61
2022/09/22 09:35:54;;;;;;;2.13;2.03;;;18.40;60.00;;;;;;5052669;28;20557;-61
2022/09/22 09:38:34;;;;;;;2.58;1.98;;;18.40;59.90;;;;;;5050643;28;20186;-61
2022/09/22 09:41:14;;;;;;;3.17;1.95;;;18.50;60.00;;;;;;5052646;28;20270;-61
2022/09/22 09:43:44;;;;;;;1.80;1.70;;;18.50;59.90;;;;;;5051710;28;20644;-61
2022/09/22 09:46:25;;;;;;;2.65;1.80;;;18.50;59.90;;;;;;5051686;28;20543;-61
2022/09/22 09:49:08;;;;;;;3.17;2.17;;;18.50;59.90;;;;;;5051866;28;20202;-61
2022/09/22 09:51:36;;;;;;;2.30;1.90;;;18.60;59.90;;;;;;5052145;28;20174;-61
2022/09/22 09:54:05;;;;;;;2.47;1.92;;;18.60;59.90;;;;;;5052265;28;20175;-60
2022/09/22 09:56:30;;;;;;;1.92;1.83;;;18.60;59.90;;;;;;5051706;28;20191;-61
2022/09/22 10:01:46;;;;;;;2.22;2.03;;;18.60;59.90;;;;;;5052722;28;20236;-61
2022/09/22 10:04:29;;;;;;;2.20;2.00;;;18.60;59.80;;;;;;5051093;28;20193;-61
2022/09/22 10:07:11;;;;;;;2.35;2.15;;;18.60;59.70;;;;;;5050764;28;20232;-61
2022/09/22 10:09:37;;;;;;;2.00;1.80;;;18.70;59.80;;;;;;5051297;28;20280;-61
2022/09/22 10:12:03;;;;;;;2.97;2.00;;;18.70;59.80;;;;;;5051014;28;20171;-61
2022/09/22 10:14:32;;;;;;;2.63;1.73;;;18.70;59.70;;;;;;5051920;28;20211;-61
2022/09/22 10:16:58;;;;;;;3.15;1.90;;;18.80;59.70;;;;;;5052406;28;20213;-62
2022/09/22 10:19:27;;;;;;;2.03;1.63;;;18.70;59.70;;;;;;5050499;28;20199;-61
2022/09/22 10:21:59;;;;;;;2.95;1.83;;;18.70;59.70;;;;;;5054144;28;20179;-61
2022/09/22 10:24:31;;;;;;;1.58;1.48;;;18.80;59.70;;;;;;5055023;28;20186;-61
2022/09/22 10:26:57;;;;;;;2.40;1.73;;;18.80;59.70;;;;;;5055354;28;20176;-61
2022/09/22 10:29:23;;;;;;;2.33;1.98;;;18.80;59.70;;;;;;5056414;28;20197;-61
2022/09/22 10:32:02;;;;;;;2.38;2.00;;;18.80;59.70;;;;;;5056379;28;20179;-61
2022/09/22 10:34:32;;;;;;;1.80;1.70;;;18.80;59.60;;;;;;5055522;28;20199;-61
2022/09/22 10:36:58;;;;;;;1.80;1.70;;;18.80;59.60;;;;;;5055930;28;20266;-61
2022/09/22 10:39:48;;;;;;;1.90;1.70;;;18.80;59.60;;;;;;5054968;28;20207;-61
2022/09/22 10:42:34;;;;;;;1.83;1.73;;;18.80;59.60;;;;;;5053901;28;20175;-61
2022/09/22 10:45:14;;;;;;;1.58;1.48;;;18.90;59.60;;;;;;5054385;28;20186;-60
2022/09/22 10:48:14;;;;;;;2.25;1.70;;;18.90;59.60;;;;;;5055380;28;20179;-61
2022/09/22 10:51:03;;;;;;;1.85;1.75;;;18.90;59.40;;;;;;5055679;28;20215;-60
2022/09/22 10:53:34;;;;;;;2.45;1.60;;;18.90;59.40;;;;;;5054263;28;20546;-61
2022/09/22 10:56:26;;;;;;;4.75;1.90;;;18.90;59.40;;;;;;5054739;28;20554;-61
2022/09/22 10:59:01;;;;;;;5.15;1.85;;;19.00;59.40;;;;;;5055081;28;20626;-60
2022/09/22 11:01:33;;;;;;;3.20;1.80;;;18.90;59.30;;;;;;5053629;28;20246;-61
2022/09/22 11:04:07;;;;;;;2.83;1.50;;;19.00;59.30;;;;;;5055094;28;20182;-60
2022/09/22 11:13:18;;;;;;;2.88;1.67;;;19.00;59.20;;;;;;5055433;28;20753;-61
2022/09/22 11:16:10;;;;;;;6.68;2.28;;;19.10;59.30;;;;;;5050721;28;20218;-61
2022/09/22 11:18:58;;;;;;;2.75;1.90;;;19.10;59.20;;;;;;5054286;28;20592;-60
2022/09/22 11:21:30;;;;;;;4.05;1.80;;;19.10;59.30;;;;;;5055348;28;20206;-61
2022/09/22 11:24:13;;;;;;;2.53;1.58;;;19.10;59.20;;;;;;5054344;28;20183;-60
2022/09/22 11:26:42;;;;;;;3.83;1.95;;;19.10;59.20;;;;;;5055476;28;20253;-61
2022/09/22 11:29:23;;;;;;;2.20;1.67;;;19.10;59.10;;;;;;5054769;28;20186;-61
2022/09/22 11:32:21;;;;;;;1.52;1.38;;;19.10;59.10;;;;;;5054516;28;20170;-60
2022/09/22 11:34:46;;;;;;;3.45;1.80;;;19.10;59.10;;;;;;5045261;28;20688;-61
2022/09/22 11:37:33;;;;;;;2.10;1.90;;;19.10;59.00;;;;;;5054103;28;20182;-61
2022/09/22 11:40:15;;;;;;;3.08;1.95;;;19.20;59.00;;;;;;5054698;28;20197;-61
2022/09/22 11:43:03;;;;;;;2.05;1.58;;;19.20;59.00;;;;;;5054959;28;20259;-61
2022/09/22 11:45:37;;;;;;;1.70;1.60;;;19.20;58.90;;;;;;5054099;28;20656;-61
2022/09/22 11:48:21;;;;;;;2.72;1.48;;;19.20;58.90;;;;;;5054621;28;20171;-60
2022/09/22 11:50:59;;;;;;;1.60;1.50;;;19.20;58.80;;;;;;5054172;28;20194;-60
2022/09/22 11:53:56;;;;;;;2.17;1.70;;;19.10;58.80;;;;;;5053522;28;20207;-61
2022/09/22 11:56:46;;;;;;;1.90;1.50;;;19.20;58.80;;;;;;5052980;28;20221;-61
2022/09/22 11:59:43;;;;;;;4.25;2.13;;;19.20;58.80;;;;;;5052705;28;20253;-60
2022/09/22 12:02:30;;;;;;;4.68;1.60;;;19.20;58.60;;;;;;5053281;28;20202;-61
2022/09/22 12:04:58;;;;;;;1.55;1.38;;;19.20;58.70;;;;;;5052613;28;20171;-61
2022/09/22 12:07:43;;;;;;;2.70;1.50;;;19.30;58.70;;;;;;5053220;28;20515;-61
2022/09/22 12:10:21;;;;;;;2.00;1.55;;;19.30;58.70;;;;;;5052703;28;20705;-60
2022/09/22 12:12:49;;;;;;;2.38;1.45;;;19.30;58.60;;;;;;5053672;28;20179;-61
2022/09/22 12:15:18;;;;;;;1.60;1.50;;;19.20;58.60;;;;;;5052873;28;20221;-61
2022/09/22 12:18:39;;;;;;;1.50;1.27;;;19.20;58.60;;;;;;5054302;28;20186;-61
2022/09/22 12:21:35;;;;;;;1.30;1.20;;;19.30;58.60;;;;;;5030173;28;20780;-61
2022/09/22 12:24:07;;;;;;;2.65;1.35;;;19.30;58.50;;;;;;5053807;28;20179;-61
2022/09/22 12:26:35;;;;;;;2.33;1.30;;;19.30;58.40;;;;;;5053290;28;20641;-61
2022/09/22 12:29:06;;;;;;;2.35;1.20;;;19.30;58.50;;;;;;5052720;28;20175;-61
2022/09/22 12:31:41;;;;;;;1.85;1.40;;;19.30;58.40;;;;;;5052909;28;20239;-60
2022/09/22 12:34:14;;;;;;;1.50;1.10;;;19.30;58.40;;;;;;5052817;28;20227;-60
2022/09/22 12:36:40;;;;;;;1.30;1.20;;;19.30;58.30;;;;;;5053841;28;20175;-60
2022/09/22 12:39:16;;;;;;;1.77;1.60;;;19.30;58.30;;;;;;5052287;28;20172;-61
2022/09/22 12:42:05;;;;;;;1.40;1.30;;;19.40;58.20;;;;;;5051968;28;20185;-61
2022/09/22 12:44:43;;;;;;;2.10;1.60;;;19.40;58.20;;;;;;5053404;28;20179;-61
2022/09/22 12:47:19;;;;;;;1.33;1.20;;;19.40;58.20;;;;;;5051529;28;20206;-60
2022/09/22 12:50:23;;;;;;;1.40;1.30;;;19.40;58.10;;;;;;5052326;28;20699;-61
2022/09/22 12:52:49;;;;;;;1.23;1.15;;;19.40;58.80;;;;;;5046943;28;20194;-61
2022/09/22 12:55:37;;;;;;;1.23;1.13;;;19.40;58.20;;;;;;5052479;28;20207;-61
2022/09/22 12:58:17;;;;;;;1.40;1.25;;;19.40;58.10;;;;;;5053099;28;20183;-61
2022/09/22 13:00:43;;;;;;;1.77;1.30;;;19.40;58.00;;;;;;5052554;28;20175;-61
2022/09/22 13:03:23;;;;;;;1.27;1.17;;;19.30;58.20;;;;;;5051309;28;20167;-60
2022/09/22 13:05:54;;;;;;;1.33;1.23;;;19.30;58.20;;;;;;5053402;28;20550;-60
2022/09/22 13:08:29;;;;;;;1.80;1.50;;;19.40;58.10;;;;;;5051270;28;20175;-61
2022/09/22 13:11:04;;;;;;;3.63;1.50;;;19.50;58.00;;;;;;5053382;28;20191;-61
2022/09/22 13:13:30;;;;;;;1.42;1.20;;;19.60;57.90;;;;;;5052132;28;20198;-61
2022/09/22 13:15:57;;;;;;;1.38;1.27;;;19.70;57.80;;;;;;5052359;28;20249;-62
2022/09/22 13:18:39;;;;;;;2.70;1.20;;;19.70;57.60;;;;;;5053117;28;20178;-61
2022/09/22 13:21:13;;;;;;;1.33;1.23;;;19.60;57.60;;;;;;5052774;28;20229;-61
2022/09/22 13:23:51;;;;;;;3.22;1.55;;;19.50;57.60;;;;;;5052164;28;20520;-61
2022/09/22 13:26:22;;;;;;;1.15;1.05;;;19.40;57.70;;;;;;5052236;28;20198;-61
2022/09/22 13:29:10;;;;;;;1.60;1.50;;;19.30;57.90;;;;;;5052376;28;20680;-61